MMMD/MID METAR and TAF weather

Enter ICAO airport designator
Station Type Date Time Source
MMMD METAR 2018/12/15 04:45 UTC NOAA

MMMD 150445Z 34005KT 7SM BKN030 22/15 A3012 RMK 8/500


Station Type Date Time Source
MMMD Decoded METAR 2018/12/15 04:45 UTC NOAA

Merida / lic Manuel Crecencio, Mexico (MMMD) 20-56N 089-39W 11M
Dec 14, 2018 - 11:45 PM EST / 2018.12.15 0445 UTC
Wind: from the NNW (340 degrees) at 6 MPH (5 KT):0
Visibility: 7 mile(s):0
Sky conditions: mostly cloudy
Temperature: 71 F (22 C)
Dew Point: 59 F (15 C)
Relative Humidity: 64%
Pressure (altimeter): 30.12 in. Hg (1019 hPa)
ob: MMMD 150445Z 34005KT 7SM BKN030 22/15 A3012 RMK 8/500
cycle: 5

Station Type Date Time Source
MMMD TAF 2018/12/15 06:12 UTC NOAA

TAF MMMD 150511Z 1506/1612 34005KT P6SM BKN030 TX26/1520Z TN16/1512Z
FM151800 32010KT P6SM SCT030 SCT080
BECMG 1605/1607 27004KT


Example: see airport list